createdAt,value
2018-06-02T00:02:11.208Z,17.00
2018-06-02T00:05:22.145Z,17.00
2018-06-02T00:08:33.047Z,16.90
2018-06-02T00:11:43.191Z,16.90
2018-06-02T00:14:53.950Z,16.80
2018-06-02T00:18:04.736Z,16.90
2018-06-02T00:21:15.572Z,16.90
2018-06-02T00:24:26.153Z,16.80
2018-06-02T00:27:36.347Z,16.80
2018-06-02T00:30:48.506Z,16.70
2018-06-02T00:33:58.990Z,16.70
2018-06-02T00:37:09.641Z,16.70
2018-06-02T00:40:20.492Z,16.70
2018-06-02T00:43:31.380Z,16.70
2018-06-02T00:46:42.959Z,16.60
2018-06-02T00:49:52.725Z,16.60
2018-06-02T00:53:03.381Z,16.50
2018-06-02T00:56:14.249Z,16.50
2018-06-02T00:59:24.713Z,16.50
2018-06-02T01:02:35.939Z,16.50
2018-06-02T01:05:46.067Z,16.50
2018-06-02T01:08:56.676Z,16.50
2018-06-02T01:12:07.422Z,16.40
2018-06-02T01:15:19.097Z,16.30
2018-06-02T01:18:29.071Z,16.30
2018-06-02T01:21:39.814Z,16.30
2018-06-02T01:24:50.967Z,16.30
2018-06-02T01:28:01.137Z,16.20
2018-06-02T01:31:11.089Z,16.10
2018-06-02T01:34:21.168Z,16.20
2018-06-02T01:37:34.788Z,16.20
2018-06-02T01:40:45.662Z,16.10
2018-06-02T01:43:56.015Z,16.10
2018-06-02T01:47:06.195Z,16.10
2018-06-02T01:50:16.782Z,16.10
2018-06-02T01:53:27.566Z,16.00
2018-06-02T01:56:38.725Z,16.00
2018-06-02T01:59:51.045Z,15.90
2018-06-02T02:03:01.458Z,15.90
2018-06-02T02:06:12.068Z,15.90
2018-06-02T02:09:22.703Z,15.70
2018-06-02T02:12:33.362Z,15.80
2018-06-02T02:15:44.329Z,15.80
2018-06-02T02:18:54.986Z,15.80
2018-06-02T02:22:04.995Z,15.70
2018-06-02T02:25:15.460Z,15.80
2018-06-02T02:28:25.613Z,15.80
2018-06-02T02:31:35.519Z,15.80
2018-06-02T02:34:46.320Z,15.90
2018-06-02T02:37:56.258Z,15.80
2018-06-02T02:41:06.811Z,15.80
2018-06-02T02:44:17.073Z,15.80
2018-06-02T02:47:28.172Z,15.80
2018-06-02T02:50:39.033Z,15.70
2018-06-02T02:53:49.875Z,15.70
2018-06-02T02:57:00.588Z,15.70
2018-06-02T03:00:12.643Z,15.70
2018-06-02T03:03:24.076Z,15.70
2018-06-02T03:06:33.957Z,15.70
2018-06-02T03:09:45.535Z,15.60
2018-06-02T03:12:55.738Z,15.60
2018-06-02T03:16:06.445Z,15.50
2018-06-02T03:19:17.270Z,15.60
2018-06-02T03:22:27.900Z,15.60
2018-06-02T03:25:38.861Z,15.50
2018-06-02T03:28:49.465Z,15.50
2018-06-02T03:32:01.193Z,15.50
2018-06-02T03:35:11.971Z,15.50
2018-06-02T03:38:21.919Z,15.40
2018-06-02T03:41:33.490Z,15.60
2018-06-02T03:44:43.814Z,15.50
2018-06-02T03:47:55.325Z,15.50
2018-06-02T03:51:05.793Z,15.50
2018-06-02T03:54:15.680Z,15.50
2018-06-02T03:57:26.457Z,15.50
2018-06-02T04:00:36.656Z,15.50
2018-06-02T04:03:47.030Z,15.50
2018-06-02T04:06:57.381Z,15.50
2018-06-02T04:10:08.238Z,15.60
2018-06-02T04:13:19.040Z,15.60
2018-06-02T04:16:29.902Z,15.60
2018-06-02T04:19:40.623Z,15.90
2018-06-02T04:22:50.451Z,15.90
2018-06-02T04:26:00.575Z,16.00
2018-06-02T04:29:11.391Z,16.10
2018-06-02T04:32:22.110Z,16.20
2018-06-02T04:35:33.010Z,16.30
2018-06-02T04:38:44.328Z,16.50
2018-06-02T04:41:55.315Z,16.60
2018-06-02T04:45:05.274Z,16.60
2018-06-02T04:48:15.278Z,16.70
2018-06-02T04:51:26.142Z,16.80
2018-06-02T04:54:36.522Z,16.80
2018-06-02T04:57:48.097Z,17.10
2018-06-02T05:00:59.641Z,17.10
2018-06-02T05:04:10.486Z,17.10
2018-06-02T05:07:20.739Z,17.20
2018-06-02T05:10:31.407Z,17.30
2018-06-02T05:13:41.297Z,17.50
2018-06-02T05:16:51.829Z,17.70
2018-06-02T05:20:01.986Z,17.70
2018-06-02T05:23:12.148Z,17.90
2018-06-02T05:26:23.634Z,17.90
2018-06-02T05:29:33.533Z,17.90
2018-06-02T05:32:44.227Z,17.90
2018-06-02T05:35:54.926Z,17.90
2018-06-02T05:39:05.034Z,17.90
2018-06-02T05:42:15.135Z,17.80
2018-06-02T05:45:26.735Z,17.90
2018-06-02T05:48:37.416Z,17.90
2018-06-02T05:51:47.449Z,17.90
2018-06-02T05:54:58.275Z,17.80
2018-06-02T05:58:08.172Z,17.90
2018-06-02T06:01:18.950Z,17.90
2018-06-02T06:04:29.825Z,17.90
2018-06-02T06:07:41.557Z,17.90
2018-06-02T06:10:51.699Z,17.90
2018-06-02T06:14:02.371Z,18.00
2018-06-02T06:17:12.690Z,18.00
2018-06-02T06:20:23.341Z,18.00
2018-06-02T06:23:34.099Z,18.00
2018-06-02T06:26:44.768Z,18.00
2018-06-02T06:29:56.221Z,18.20
2018-06-02T06:33:06.121Z,18.10
2018-06-02T06:36:17.007Z,18.20
2018-06-02T06:39:27.099Z,18.20
2018-06-02T06:42:37.056Z,18.30
2018-06-02T06:45:48.466Z,18.30
2018-06-02T06:49:00.273Z,18.50
2018-06-02T06:52:10.374Z,18.40
2018-06-02T06:55:25.597Z,18.60
2018-06-02T06:58:35.890Z,18.60
2018-06-02T07:01:46.894Z,18.60
2018-06-02T07:04:57.930Z,18.70
2018-06-02T07:08:08.720Z,18.70
2018-06-02T07:11:20.673Z,18.70
2018-06-02T07:14:32.021Z,18.90
2018-06-02T07:17:43.590Z,18.70
2018-06-02T07:20:53.545Z,18.70
2018-06-02T07:24:04.651Z,18.80
2018-06-02T07:27:15.068Z,18.80
2018-06-02T07:30:25.856Z,18.80
2018-06-02T07:33:36.612Z,18.90
2018-06-02T07:36:47.301Z,19.40
2018-06-02T07:39:57.513Z,19.30
2018-06-02T07:43:08.014Z,19.30
2018-06-02T07:46:18.688Z,19.30
2018-06-02T07:49:28.619Z,19.30
2018-06-02T07:52:38.681Z,19.30
2018-06-02T07:55:49.218Z,19.50
2018-06-02T07:59:00.538Z,19.50
2018-06-02T08:02:11.650Z,19.50
2018-06-02T08:05:21.751Z,19.60
2018-06-02T08:08:32.460Z,19.60
2018-06-02T08:11:43.161Z,19.50
2018-06-02T08:14:54.521Z,19.60
2018-06-02T08:18:05.369Z,19.60
2018-06-02T08:21:15.438Z,19.60
2018-06-02T08:24:26.106Z,19.60
2018-06-02T08:27:36.758Z,19.70
2018-06-02T08:30:47.522Z,19.60
2018-06-02T08:33:57.488Z,19.50
2018-06-02T08:37:08.274Z,19.50
2018-06-02T08:40:19.356Z,19.50
2018-06-02T08:43:29.840Z,19.40
2018-06-02T08:46:41.219Z,19.30
2018-06-02T08:49:51.339Z,19.30
2018-06-02T08:53:03.104Z,19.30
2018-06-02T08:56:13.704Z,19.40
2018-06-02T08:59:24.443Z,19.40
2018-06-02T09:02:35.199Z,19.40
2018-06-02T09:05:45.673Z,19.40
2018-06-02T09:08:56.446Z,19.40
2018-06-02T09:12:06.977Z,19.30
2018-06-02T09:15:18.209Z,19.40
2018-06-02T09:18:28.362Z,19.30
2018-06-02T09:21:39.180Z,19.20
2018-06-02T09:24:49.856Z,19.30
2018-06-02T09:28:00.824Z,19.30
2018-06-02T09:31:11.953Z,19.30
2018-06-02T09:34:22.182Z,19.20
2018-06-02T09:37:32.955Z,19.20
2018-06-02T09:40:44.575Z,19.20
2018-06-02T09:43:55.643Z,19.20
2018-06-02T09:47:06.538Z,19.30
2018-06-02T09:50:17.221Z,19.40
2018-06-02T09:53:29.819Z,19.40
2018-06-02T09:56:40.096Z,19.60
2018-06-02T09:59:50.770Z,19.50
2018-06-02T10:03:04.277Z,19.50
2018-06-02T10:06:14.957Z,19.50
2018-06-02T10:09:25.507Z,19.50
2018-06-02T10:12:36.343Z,19.60
2018-06-02T10:15:46.948Z,19.70
2018-06-02T10:18:57.736Z,19.60
2018-06-02T10:22:08.144Z,19.50
2018-06-02T10:25:18.763Z,19.60
2018-06-02T10:28:29.303Z,19.80
2018-06-02T10:31:40.792Z,19.70
2018-06-02T10:34:52.144Z,19.70
2018-06-02T10:38:03.331Z,19.80
2018-06-02T10:41:13.901Z,19.70
2018-06-02T10:44:24.799Z,19.90
2018-06-02T10:47:36.023Z,19.90
2018-06-02T10:50:46.609Z,20.00
2018-06-02T10:53:57.300Z,19.90
2018-06-02T10:57:07.904Z,20.20
2018-06-02T11:00:18.741Z,20.30
2018-06-02T11:03:30.282Z,20.30
2018-06-02T11:06:40.922Z,20.40
2018-06-02T11:09:51.604Z,20.40
2018-06-02T11:13:01.509Z,20.50
2018-06-02T11:16:13.337Z,20.50
2018-06-02T11:19:23.868Z,20.70
2018-06-02T11:22:34.233Z,20.90
2018-06-02T11:25:45.937Z,21.40
2018-06-02T11:28:56.691Z,21.30
2018-06-02T11:32:07.816Z,21.30
2018-06-02T11:35:19.169Z,21.70
2018-06-02T11:38:29.378Z,21.70
2018-06-02T11:41:39.523Z,21.80
2018-06-02T11:44:51.235Z,21.60
2018-06-02T11:48:01.604Z,21.60
2018-06-02T11:51:12.173Z,21.70
2018-06-02T11:54:23.796Z,21.20
2018-06-02T11:57:34.752Z,21.10
2018-06-02T12:00:45.332Z,21.50
2018-06-02T12:03:56.067Z,21.60
2018-06-02T12:07:07.780Z,21.70
2018-06-02T12:10:18.542Z,21.60
2018-06-02T12:13:29.062Z,21.60
2018-06-02T12:16:39.395Z,21.60
2018-06-02T12:19:50.118Z,21.60
2018-06-02T12:23:01.621Z,21.50
2018-06-02T12:26:13.054Z,21.40
2018-06-02T12:29:23.886Z,21.40
2018-06-02T12:32:33.810Z,21.40
2018-06-02T12:35:44.622Z,21.10
2018-06-02T12:38:55.360Z,21.20
2018-06-02T12:42:05.254Z,21.00
2018-06-02T12:45:16.749Z,20.80
2018-06-02T12:48:27.959Z,20.80
2018-06-02T12:51:39.101Z,20.80
2018-06-02T12:54:49.084Z,20.80
2018-06-02T12:57:58.966Z,20.70
2018-06-02T13:01:09.509Z,21.00
2018-06-02T13:04:20.564Z,21.10
2018-06-02T13:07:31.436Z,21.10
2018-06-02T13:10:43.390Z,20.90
2018-06-02T13:13:53.607Z,20.90
2018-06-02T13:17:04.305Z,20.90
2018-06-02T13:20:15.030Z,20.90
2018-06-02T13:23:25.774Z,21.20
2018-06-02T13:26:36.488Z,21.30
2018-06-02T13:29:47.128Z,21.30
2018-06-02T13:32:57.594Z,21.20
2018-06-02T13:36:08.315Z,21.00
2018-06-02T13:39:18.949Z,21.00
2018-06-02T13:42:31.684Z,21.20
2018-06-02T13:45:43.193Z,21.20
2018-06-02T13:48:54.196Z,21.30
2018-06-02T13:52:05.036Z,21.30
2018-06-02T13:55:15.481Z,21.10
2018-06-02T13:58:26.338Z,21.00
2018-06-02T14:01:36.889Z,21.00
2018-06-02T14:04:47.966Z,20.90
2018-06-02T14:07:58.571Z,21.10
2018-06-02T14:11:09.851Z,21.50
2018-06-02T14:14:19.998Z,21.50
2018-06-02T14:17:30.322Z,21.40
2018-06-02T14:20:41.153Z,21.50
2018-06-02T14:23:51.839Z,21.40
2018-06-02T14:27:01.795Z,21.40
2018-06-02T14:30:11.776Z,21.40
2018-06-02T14:33:22.324Z,21.40
2018-06-02T14:36:33.174Z,21.30
2018-06-02T14:39:43.756Z,21.30
2018-06-02T14:42:54.533Z,21.40
2018-06-02T14:46:05.262Z,21.40
2018-06-02T14:49:15.961Z,21.30
2018-06-02T14:52:28.171Z,21.40
2018-06-02T14:55:39.114Z,21.50
2018-06-02T14:58:49.324Z,21.50
2018-06-02T15:01:59.327Z,21.40
2018-06-02T15:05:10.264Z,21.30
2018-06-02T15:08:21.222Z,21.30
2018-06-02T15:11:31.755Z,21.20
2018-06-02T15:14:43.404Z,21.20
2018-06-02T15:17:54.440Z,21.10
2018-06-02T15:21:04.990Z,21.20
2018-06-02T15:24:16.267Z,21.10
2018-06-02T15:27:26.462Z,21.10
2018-06-02T15:30:36.936Z,21.10
2018-06-02T15:33:47.165Z,21.20
2018-06-02T15:36:58.157Z,21.20
2018-06-02T15:40:08.608Z,21.20
2018-06-02T15:43:19.393Z,21.30
2018-06-02T15:46:30.139Z,21.50
2018-06-02T15:49:40.986Z,21.40
2018-06-02T15:52:51.469Z,21.50
2018-06-02T15:56:03.046Z,21.30
2018-06-02T15:59:12.849Z,21.30
2018-06-02T16:02:24.240Z,21.40
2018-06-02T16:05:34.550Z,21.40
2018-06-02T16:08:45.809Z,21.40
2018-06-02T16:12:05.931Z,21.30
2018-06-02T16:15:16.828Z,21.30
2018-06-02T16:18:27.289Z,21.20
2018-06-02T16:21:37.998Z,21.30
2018-06-02T16:24:48.805Z,21.30
2018-06-02T16:27:59.555Z,21.30
2018-06-02T16:31:09.377Z,21.30
2018-06-02T16:34:20.137Z,21.30
2018-06-02T16:37:29.990Z,21.20
2018-06-02T16:40:42.139Z,21.30
2018-06-02T16:43:52.635Z,21.20
2018-06-02T16:47:03.747Z,21.30
2018-06-02T16:50:15.242Z,21.30
2018-06-02T16:53:25.095Z,21.20
2018-06-02T16:56:35.674Z,21.40
2018-06-02T16:59:46.392Z,21.50
2018-06-02T17:02:57.054Z,21.50
2018-06-02T17:06:07.238Z,21.60
2018-06-02T17:09:19.010Z,21.40
2018-06-02T17:12:30.147Z,21.30
2018-06-02T17:15:40.989Z,21.30
2018-06-02T17:18:51.756Z,21.20
2018-06-02T17:22:02.573Z,21.10
2018-06-02T17:25:13.238Z,21.10
2018-06-02T17:28:23.987Z,20.90
2018-06-02T17:31:34.668Z,20.90
2018-06-02T17:34:45.982Z,20.80
2018-06-02T17:37:55.898Z,20.70
2018-06-02T17:41:07.398Z,20.80
2018-06-02T17:44:18.554Z,20.80
2018-06-02T17:47:28.730Z,20.70
2018-06-02T17:50:39.238Z,20.60
2018-06-02T17:53:49.244Z,20.60
2018-06-02T17:57:00.012Z,20.60
2018-06-02T18:00:10.033Z,20.60
2018-06-02T18:03:20.949Z,20.60
2018-06-02T18:06:31.250Z,20.50
2018-06-02T18:09:41.757Z,20.40
2018-06-02T18:12:52.492Z,20.50
2018-06-02T18:16:03.190Z,20.50
2018-06-02T18:19:13.759Z,20.30
2018-06-02T18:22:23.765Z,20.20
2018-06-02T18:25:34.576Z,20.10
2018-06-02T18:28:45.408Z,20.00
2018-06-02T18:31:56.016Z,19.90
2018-06-02T18:35:06.910Z,19.90
2018-06-02T18:38:16.778Z,19.90
2018-06-02T18:44:46.541Z,19.80
2018-06-02T18:48:05.809Z,19.80
2018-06-02T18:51:22.388Z,19.80
2018-06-02T18:54:34.979Z,19.70
2018-06-02T18:57:44.934Z,19.60
2018-06-02T19:00:55.821Z,19.70
2018-06-02T19:04:06.332Z,19.70
2018-06-02T19:07:17.551Z,19.70
2018-06-02T19:10:27.863Z,19.50
2018-06-02T19:13:39.331Z,19.50
2018-06-02T19:16:51.730Z,19.30
2018-06-02T19:20:01.785Z,19.20
2018-06-02T19:23:13.392Z,19.10
2018-06-02T19:26:24.562Z,19.10
2018-06-02T19:29:35.743Z,19.00
2018-06-02T19:32:46.559Z,19.00
2018-06-02T19:35:56.935Z,19.00
2018-06-02T19:39:06.987Z,19.20
2018-06-02T19:42:17.292Z,19.20
2018-06-02T19:45:28.879Z,19.10
2018-06-02T19:48:40.671Z,19.00
2018-06-02T19:51:53.014Z,19.00
2018-06-02T19:55:05.711Z,19.00
2018-06-02T19:58:16.364Z,19.00
2018-06-02T20:01:27.106Z,18.90
2018-06-02T20:04:37.688Z,18.80
2018-06-02T20:08:20.874Z,18.60
2018-06-02T20:11:31.617Z,18.60
2018-06-02T20:14:43.758Z,18.60
2018-06-02T20:17:54.508Z,18.50
2018-06-02T20:21:05.278Z,18.40
2018-06-02T20:24:15.959Z,18.40
2018-06-02T20:27:26.960Z,18.50
2018-06-02T20:30:37.793Z,18.40
2018-06-02T20:33:48.330Z,18.30
2018-06-02T20:36:59.252Z,18.20
2018-06-02T20:40:09.783Z,18.10
2018-06-02T20:43:21.271Z,18.10
2018-06-02T20:46:32.803Z,18.10
2018-06-02T20:49:44.169Z,18.00
2018-06-02T20:52:56.263Z,17.90
2018-06-02T20:56:06.824Z,17.80
2018-06-02T20:59:17.622Z,17.70
2018-06-02T21:02:28.231Z,17.80
2018-06-02T21:05:39.158Z,17.80
2018-06-02T21:08:50.355Z,17.70
2018-06-02T21:12:01.795Z,17.60
2018-06-02T21:15:12.559Z,17.30
2018-06-02T21:18:23.623Z,17.30
2018-06-02T21:21:35.368Z,17.30
2018-06-02T21:24:46.534Z,17.30
2018-06-02T21:27:57.388Z,17.30
2018-06-02T21:31:07.862Z,17.20
2018-06-02T21:34:18.701Z,17.10
2018-06-02T21:37:29.745Z,17.20
2018-06-02T21:40:41.050Z,17.10
2018-06-02T21:43:51.522Z,17.20
2018-06-02T21:50:14.745Z,17.20
2018-06-02T21:53:25.435Z,17.10
2018-06-02T21:56:36.091Z,17.10
2018-06-02T21:59:47.575Z,17.10
2018-06-02T22:02:58.145Z,17.10
2018-06-02T22:06:09.235Z,17.20
2018-06-02T22:09:20.276Z,17.20
2018-06-02T22:12:31.415Z,17.30
2018-06-02T22:15:42.710Z,17.30
2018-06-02T22:18:54.042Z,17.30
2018-06-02T22:22:06.782Z,17.20
2018-06-02T22:25:18.318Z,17.20
2018-06-02T22:28:29.867Z,17.20
2018-06-02T22:31:40.792Z,17.20
2018-06-02T22:34:51.738Z,17.10
2018-06-02T22:38:02.638Z,17.00
2018-06-02T22:41:13.507Z,16.90
2018-06-02T22:44:24.900Z,16.80
2018-06-02T22:47:36.040Z,16.80
2018-06-02T22:50:47.240Z,16.70
2018-06-02T22:53:59.056Z,16.60
2018-06-02T22:57:10.228Z,16.70
2018-06-02T23:00:20.979Z,16.70
2018-06-02T23:03:32.374Z,16.60
2018-06-02T23:06:43.096Z,16.50
2018-06-02T23:09:54.059Z,16.60
2018-06-02T23:13:04.783Z,16.70
2018-06-02T23:16:15.692Z,16.60
2018-06-02T23:19:26.369Z,16.60
2018-06-02T23:25:51.375Z,16.70
2018-06-02T23:29:02.241Z,16.70
2018-06-02T23:32:13.696Z,16.80
2018-06-02T23:35:24.453Z,16.80
2018-06-02T23:38:35.606Z,16.80
2018-06-02T23:41:46.161Z,16.80
2018-06-02T23:44:57.177Z,16.90
2018-06-02T23:48:07.473Z,16.90
2018-06-02T23:51:18.207Z,16.90
2018-06-02T23:54:30.252Z,16.90
2018-06-02T23:57:41.767Z,17.00
